Ramsay, Michigan
Current Conditions -  °F | °C
As of 6:15 PM on Friday 21 Nov 2014 (Local Time) from KIWD Reporting Station
Clear Clear  
Wind Chill: 14°   Ceiling: Unl
Heat Index: 27°   Visibility: 4mi
Dew Point: 10°   Wind: 16mph
Humidity: 51%   Direction: 210°SSW
Pressure: 29.85"   Gusts: 30mph
Location:  46.47°N, 90°W
Report Text: KIWD 220015Z AUTO 21014G26KT 4SM CLR M03/M12 A2985 RMK AO1
Loading
Personal Weather Stations






























Interactive Weather Map New forecast layout! Learn more

10-Day Weather Forecast

Advertisements
Track Severe Weather on mobile